Time;durP1;ratioP1;P1;durP2;ratioP2;P2;SDS_P1;SDS_P2;PMS_P1;PMS_P2;Temp;Humidity;BMP_temperature;BMP_pressure;BME280_temperature;BME280_humidity;BME280_pressure;Samples;Min_cycle;Max_cycle;Signal;HPM_P1;HPM_P2
2023/03/11 00:00:41;;;;;;;7.82;5.07;;;;;;;9.23;98.55;96842.00;5053851;28;20362;-73
2023/03/11 00:03:08;;;;;;;6.78;4.55;;;;;;;9.29;98.91;96849.25;5054194;28;20111;-73
2023/03/11 00:05:38;;;;;;;5.70;4.18;;;;;;;9.31;98.93;96860.31;5054357;28;20389;-73
2023/03/11 00:08:06;;;;;;;4.18;3.15;;;;;;;9.06;99.03;96827.00;5054157;28;20025;-73
2023/03/11 00:10:34;;;;;;;5.95;3.85;;;;;;;9.31;99.43;96864.69;5053946;28;20036;-73
2023/03/11 00:13:00;;;;;;;5.50;2.97;;;;;;;9.28;99.78;96862.38;5054141;28;20029;-73
2023/03/11 00:15:27;;;;;;;3.25;2.90;;;;;;;9.29;100.00;96856.22;5053644;28;20386;-73
2023/03/11 00:17:53;;;;;;;4.18;3.25;;;;;;;9.19;100.00;96848.41;5054467;28;20047;-73
2023/03/11 00:20:26;;;;;;;5.47;3.78;;;;;;;9.21;100.00;96849.91;5053776;28;20024;-73
2023/03/11 00:22:52;;;;;;;5.10;4.30;;;;;;;9.23;100.00;96847.19;5054097;28;20033;-73
2023/03/11 00:25:19;;;;;;;6.15;3.45;;;;;;;9.06;100.00;96825.28;5053689;28;20033;-73
2023/03/11 00:27:44;;;;;;;3.92;3.25;;;;;;;9.14;100.00;96838.41;5054023;28;20021;-73
2023/03/11 00:30:11;;;;;;;4.30;3.20;;;;;;;9.07;100.00;96824.31;5053774;28;20035;-73
2023/03/11 00:32:37;;;;;;;4.35;3.53;;;;;;;9.12;100.00;96832.53;5053780;28;20495;-73
2023/03/11 00:35:04;;;;;;;3.35;3.00;;;;;;;9.01;100.00;96824.81;5053729;28;20032;-73
2023/03/11 00:37:29;;;;;;;5.28;3.50;;;;;;;9.03;100.00;96829.91;5053400;28;20079;-73
2023/03/11 00:39:54;;;;;;;5.28;3.47;;;;;;;8.94;100.00;96829.72;5053890;28;20424;-73
2023/03/11 00:42:19;;;;;;;4.10;3.70;;;;;;;8.97;100.00;96836.41;5053340;28;20029;-73
2023/03/11 00:44:45;;;;;;;4.03;3.40;;;;;;;8.88;100.00;96821.63;5053394;28;20088;-73
2023/03/11 00:47:11;;;;;;;4.22;3.60;;;;;;;8.96;100.00;96842.56;5053267;28;20025;-73
2023/03/11 00:49:36;;;;;;;5.57;3.92;;;;;;;8.94;100.00;96847.06;5053732;28;20033;-73
2023/03/11 00:52:02;;;;;;;5.70;3.58;;;;;;;8.90;100.00;96848.28;5053453;28;20025;-73
2023/03/11 00:54:27;;;;;;;5.38;4.30;;;;;;;8.71;100.00;96836.84;5053229;28;20029;-73
2023/03/11 00:56:52;;;;;;;4.63;4.00;;;;;;;8.67;100.00;96842.41;5053265;28;20033;-73
2023/03/11 00:59:18;;;;;;;4.53;3.47;;;;;;;8.63;100.00;96854.00;5052842;28;20119;-73
2023/03/11 01:01:43;;;;;;;3.78;2.95;;;;;;;8.47;100.00;96846.69;5053318;28;20373;-73
2023/03/11 01:04:08;;;;;;;3.10;2.70;;;;;;;8.28;100.00;96838.75;5052009;28;20037;-73
2023/03/11 01:06:34;;;;;;;2.58;2.30;;;;;;;8.22;100.00;96837.47;5052805;28;20032;-73
2023/03/11 01:08:59;;;;;;;3.20;2.67;;;;;;;8.33;100.00;96870.28;5053044;28;20029;-73
2023/03/11 01:11:24;;;;;;;3.05;2.58;;;;;;;8.20;100.00;96849.72;5052098;28;20025;-73
2023/03/11 01:13:50;;;;;;;3.33;2.20;;;;;;;8.06;100.00;96824.94;5052748;28;20033;-73
2023/03/11 01:16:15;;;;;;;2.58;2.38;;;;;;;8.31;100.00;96867.84;5052548;28;20376;-73
2023/03/11 01:18:40;;;;;;;2.95;2.53;;;;;;;8.13;100.00;96854.59;5053199;28;20033;-73
2023/03/11 01:21:05;;;;;;;2.72;2.13;;;;;;;8.20;100.00;96865.28;5052812;28;20031;-73
2023/03/11 01:23:31;;;;;;;2.42;2.22;;;;;;;8.11;100.00;96873.81;5052636;28;20033;-73
2023/03/11 01:25:57;;;;;;;2.50;2.30;;;;;;;8.09;100.00;96868.75;5052480;28;20061;-73
2023/03/11 01:28:22;;;;;;;2.45;2.20;;;;;;;7.94;100.00;96852.66;5052376;28;20495;-73
2023/03/11 01:30:47;;;;;;;2.78;2.47;;;;;;;7.92;100.00;96841.63;5052853;28;20064;-73
2023/03/11 01:33:17;;;;;;;2.60;2.40;;;;;;;7.98;100.00;96861.84;5052755;28;20056;-73
2023/03/11 01:35:43;;;;;;;2.00;1.80;;;;;;;7.88;100.00;96852.31;5052597;28;20039;-73
2023/03/11 01:38:10;;;;;;;2.10;1.90;;;;;;;7.90;100.00;96864.22;5052626;28;20506;-73
2023/03/11 01:40:43;;;;;;;2.50;1.80;;;;;;;7.80;100.00;96849.56;5052339;28;20113;-73
2023/03/11 01:43:43;;;;;;;2.08;1.75;;;;;;;7.91;100.00;96867.63;5052669;28;20063;-73
2023/03/11 01:46:14;;;;;;;2.10;1.90;;;;;;;7.93;100.00;96876.13;5052522;28;20036;-73
2023/03/11 01:48:44;;;;;;;1.63;1.52;;;;;;;7.74;100.00;96862.03;5052462;28;20044;-73
2023/03/11 01:51:10;;;;;;;1.60;1.50;;;;;;;7.67;100.00;96849.72;5052249;28;20025;-73
2023/03/11 01:53:35;;;;;;;2.35;1.38;;;;;;;7.76;100.00;96869.69;5051956;28;20028;-73
2023/03/11 01:56:03;;;;;;;1.58;1.48;;;;;;;7.65;100.00;96836.84;5050971;28;20035;-73
2023/03/11 01:58:33;;;;;;;1.40;1.30;;;;;;;7.75;100.00;96868.03;5052042;28;20074;-73
2023/03/11 02:01:00;;;;;;;1.30;1.20;;;;;;;7.74;99.49;96867.22;5052207;28;20091;-73
2023/03/11 02:03:31;;;;;;;1.30;1.20;;;;;;;7.72;99.52;96870.88;5051907;28;20032;-73
2023/03/11 02:05:59;;;;;;;1.23;1.13;;;;;;;7.61;99.36;96851.00;5052004;28;20025;-73
2023/03/11 02:08:25;;;;;;;2.72;1.42;;;;;;;7.63;99.63;96856.06;5052253;28;20032;-73
2023/03/11 02:10:52;;;;;;;1.40;1.30;;;;;;;7.69;100.00;96865.94;5052127;28;20094;-73
2023/03/11 02:13:18;;;;;;;1.25;1.17;;;;;;;7.52;99.72;96835.38;5051875;28;20423;-73
2023/03/11 02:15:44;;;;;;;1.20;1.10;;;;;;;7.70;99.82;96868.41;5051856;28;20477;-73
2023/03/11 02:18:13;;;;;;;1.42;1.33;;;;;;;7.53;100.00;96858.56;5050817;28;20048;-73
2023/03/11 02:20:51;;;;;;;2.17;1.30;;;;;;;7.63;100.00;96875.03;5051595;28;20025;-73
2023/03/11 02:23:20;;;;;;;1.58;1.42;;;;;;;7.52;100.00;96867.28;5051482;28;20025;-73
2023/03/11 02:26:27;;;;;;;1.50;1.40;;;;;;;7.57;100.00;96874.69;5051858;28;20049;-73
2023/03/11 02:28:54;;;;;;;3.13;1.75;;;;;;;7.51;100.00;96863.03;5051562;28;20029;-73
2023/03/11 02:31:21;;;;;;;1.60;1.50;;;;;;;7.42;100.00;96848.22;5051806;28;20095;-73
2023/03/11 02:33:49;;;;;;;1.50;1.40;;;;;;;7.32;100.00;96853.28;5051898;28;20025;-73
2023/03/11 02:36:35;;;;;;;2.15;1.88;;;;;;;7.46;100.00;96871.16;5050449;28;20385;-73
2023/03/11 02:39:01;;;;;;;1.52;1.42;;;;;;;7.35;100.00;96847.88;5051696;28;20025;-73
2023/03/11 02:41:27;;;;;;;2.50;2.10;;;;;;;7.50;100.00;96871.75;5051356;28;20472;-73
2023/03/11 02:43:53;;;;;;;2.30;2.10;;;;;;;7.45;100.00;96869.50;5052107;28;20025;-73
2023/03/11 02:46:19;;;;;;;2.55;2.33;;;;;;;7.45;100.00;96874.69;5051560;28;20033;-73
2023/03/11 02:48:45;;;;;;;2.80;2.58;;;;;;;7.25;100.00;96845.19;5051786;28;20052;-73
2023/03/11 02:51:10;;;;;;;2.42;2.15;;;;;;;7.31;100.00;96864.59;5051737;28;20028;-73
2023/03/11 02:53:41;;;;;;;3.95;2.40;;;;;;;7.27;100.00;96858.00;5051684;28;20075;-73
2023/03/11 02:56:06;;;;;;;2.40;2.20;;;;;;;7.22;100.00;96842.00;5051445;28;20025;-73
2023/03/11 02:58:31;;;;;;;2.72;2.50;;;;;;;7.21;99.91;96863.66;5051511;28;20025;-73
2023/03/11 03:00:57;;;;;;;2.55;2.35;;;;;;;7.15;98.86;96877.06;5051617;28;20025;-73
2023/03/11 03:03:22;;;;;;;2.20;2.00;;;;;;;7.09;98.02;96885.31;5051617;28;20488;-73
2023/03/11 03:05:47;;;;;;;2.10;2.00;;;;;;;6.95;97.26;96894.13;5051548;28;20032;-73
2023/03/11 03:08:13;;;;;;;1.80;1.70;;;;;;;6.77;96.45;96926.56;5051453;28;20021;-73
2023/03/11 03:10:38;;;;;;;1.88;1.40;;;;;;;6.33;96.62;96917.75;5051141;28;20029;-73
2023/03/11 03:13:03;;;;;;;1.48;1.38;;;;;;;6.35;94.40;96932.19;5050226;28;20039;-73
2023/03/11 03:15:29;;;;;;;1.83;1.00;;;;;;;6.19;92.90;96924.75;5051213;28;20029;-73
2023/03/11 03:17:54;;;;;;;0.80;0.80;;;;;;;6.22;90.52;96931.44;5051454;28;20104;-73
2023/03/11 03:20:21;;;;;;;0.93;0.90;;;;;;;5.92;89.79;96949.97;5051314;28;20028;-73
2023/03/11 03:22:47;;;;;;;0.90;0.90;;;;;;;5.74;89.57;96934.81;5051312;28;20025;-73
2023/03/11 03:25:12;;;;;;;0.90;0.70;;;;;;;5.71;88.70;96972.94;5051044;28;20040;-73
2023/03/11 03:27:38;;;;;;;1.52;0.90;;;;;;;5.62;89.08;96969.22;5050981;28;20376;-73
2023/03/11 03:30:05;;;;;;;0.90;0.90;;;;;;;5.40;89.04;96936.31;5051403;28;20063;-73
2023/03/11 03:32:30;;;;;;;0.73;0.73;;;;;;;5.43;89.34;96949.00;5051075;28;20112;-73
2023/03/11 03:34:57;;;;;;;0.90;0.90;;;;;;;5.40;89.30;96949.25;5051810;28;20111;-73
2023/03/11 03:37:25;;;;;;;1.05;1.05;;;;;;;5.37;88.94;96966.69;5054630;28;20146;-73
2023/03/11 03:39:50;;;;;;;1.15;1.05;;;;;;;5.31;88.85;96957.63;5054707;28;20513;-73
2023/03/11 03:42:15;;;;;;;1.15;1.05;;;;;;;5.34;89.67;96974.63;5054708;28;20021;-73
2023/03/11 03:44:41;;;;;;;1.02;1.02;;;;;;;5.40;89.32;96984.56;5054583;28;20025;-73
2023/03/11 03:47:06;;;;;;;1.30;1.20;;;;;;;5.29;87.99;96993.00;5054709;28;20032;-73
2023/03/11 03:49:31;;;;;;;1.30;1.20;;;;;;;4.99;88.51;96959.78;5054474;28;20179;-73
2023/03/11 03:51:57;;;;;;;0.80;0.80;;;;;;;5.22;88.92;96997.78;5054834;28;20032;-73
2023/03/11 03:54:22;;;;;;;0.90;0.90;;;;;;;5.27;88.48;97010.38;5054406;28;20029;-73
2023/03/11 03:56:47;;;;;;;1.00;0.90;;;;;;;5.08;87.85;96997.03;5054368;28;20541;-73
2023/03/11 03:59:12;;;;;;;1.23;0.88;;;;;;;4.99;87.69;97001.06;5054540;28;20029;-73
2023/03/11 04:01:38;;;;;;;1.27;0.82;;;;;;;5.01;86.55;97014.66;5054285;28;20477;-73
2023/03/11 04:04:03;;;;;;;1.13;0.90;;;;;;;4.91;86.74;97006.72;5054365;28;20061;-73
2023/03/11 04:06:29;;;;;;;1.45;0.80;;;;;;;4.93;86.67;97022.94;5054193;28;20035;-73
2023/03/11 04:08:54;;;;;;;0.40;0.40;;;;;;;4.89;86.59;97025.81;5054269;28;20396;-73
2023/03/11 04:11:21;;;;;;;0.95;0.60;;;;;;;4.86;86.63;97016.50;5054400;28;20053;-73
2023/03/11 04:13:46;;;;;;;0.70;0.70;;;;;;;4.70;86.40;97011.53;5054093;28;20489;-73
2023/03/11 04:16:18;;;;;;;0.60;0.60;;;;;;;4.74;86.64;97027.63;5054124;28;20104;-73
2023/03/11 04:18:43;;;;;;;1.13;0.90;;;;;;;4.56;86.94;97021.91;5054077;28;20465;-73
2023/03/11 04:21:08;;;;;;;0.65;0.65;;;;;;;4.35;87.15;96990.59;5054296;28;20029;-73
2023/03/11 04:23:33;;;;;;;0.70;0.70;;;;;;;4.59;87.42;97037.16;5053676;28;20028;-73
2023/03/11 04:26:00;;;;;;;6.32;1.15;;;;;;;4.41;87.75;97010.81;5053817;28;20068;-73
2023/03/11 04:28:26;;;;;;;0.90;0.90;;;;;;;4.40;87.48;97022.06;5053584;28;20067;-73
2023/03/11 04:30:51;;;;;;;0.80;0.80;;;;;;;4.36;88.07;97028.34;5053902;28;20021;-73
2023/03/11 04:33:17;;;;;;;0.80;0.80;;;;;;;4.38;88.43;97026.50;5053853;28;20052;-73
2023/03/11 04:35:42;;;;;;;0.98;0.88;;;;;;;4.40;88.22;97049.59;5053623;28;20025;-73
2023/03/11 04:38:07;;;;;;;0.80;0.80;;;;;;;4.20;88.94;97027.63;5053600;28;20029;-73
2023/03/11 04:40:33;;;;;;;1.05;0.93;;;;;;;4.33;89.26;97048.31;5053843;28;20032;-73
2023/03/11 04:42:58;;;;;;;1.10;1.00;;;;;;;4.14;89.87;97030.63;5053756;28;20033;-73
2023/03/11 04:45:23;;;;;;;0.68;0.68;;;;;;;4.28;89.28;97051.19;5053632;28;20469;-73
2023/03/11 04:47:50;;;;;;;0.80;0.80;;;;;;;4.16;89.51;97034.72;5053326;28;20358;-73
2023/03/11 04:50:16;;;;;;;0.90;0.90;;;;;;;4.07;89.70;97031.91;5053429;28;20036;-73
2023/03/11 04:52:42;;;;;;;0.90;0.90;;;;;;;4.10;89.72;97042.84;5053088;28;20021;-73
2023/03/11 04:55:08;;;;;;;0.75;0.75;;;;;;;4.02;89.87;97028.78;5053282;28;20031;-73
2023/03/11 04:57:33;;;;;;;1.15;1.05;;;;;;;4.14;90.49;97067.50;5053165;28;20036;-73
2023/03/11 04:59:59;;;;;;;1.65;1.48;;;;;;;4.11;90.34;97048.81;5053293;28;20033;-73
2023/03/11 05:02:24;;;;;;;1.30;0.90;;;;;;;3.94;90.70;97045.53;5053296;28;20021;-73
2023/03/11 05:04:49;;;;;;;1.30;1.00;;;;;;;4.04;90.21;97068.16;5052968;28;20036;-73
2023/03/11 05:07:15;;;;;;;0.93;0.88;;;;;;;4.04;90.63;97075.88;5053023;28;20067;-73
2023/03/11 05:09:40;;;;;;;0.80;0.80;;;;;;;3.96;90.56;97084.06;5053031;28;20025;-73
2023/03/11 05:12:06;;;;;;;0.95;0.82;;;;;;;3.94;91.23;97075.63;5053043;28;20495;-73
2023/03/11 05:14:31;;;;;;;0.90;0.90;;;;;;;3.86;90.72;97057.22;5052916;28;20029;-73
2023/03/11 05:16:56;;;;;;;0.85;0.85;;;;;;;3.74;91.26;97057.03;5053042;28;20494;-73
2023/03/11 05:19:33;;;;;;;0.85;0.85;;;;;;;3.84;91.85;97057.34;5052978;28;20528;-73
2023/03/11 05:21:59;;;;;;;1.95;0.98;;;;;;;3.99;91.37;97087.28;5052924;28;20029;-74
2023/03/11 05:24:27;;;;;;;0.90;0.90;;;;;;;3.79;91.80;97068.81;5052783;28;20036;-73
2023/03/11 05:26:52;;;;;;;1.25;1.20;;;;;;;3.69;92.04;97064.22;5052495;28;20390;-73
2023/03/11 05:29:18;;;;;;;1.10;1.00;;;;;;;3.72;92.40;97069.19;5052833;28;20044;-73
2023/03/11 05:31:43;;;;;;;1.10;1.10;;;;;;;3.59;92.21;97070.03;5052382;28;20021;-73
2023/03/11 05:34:08;;;;;;;0.90;0.90;;;;;;;3.56;92.56;97073.59;5052526;28;20112;-73
2023/03/11 05:36:34;;;;;;;0.80;0.80;;;;;;;3.49;92.85;97077.44;5052469;28;20025;-73
2023/03/11 05:38:59;;;;;;;1.10;1.00;;;;;;;3.40;93.41;97072.84;5052466;28;20028;-73
2023/03/11 05:41:24;;;;;;;0.98;0.93;;;;;;;3.63;94.02;97113.50;5052820;28;20404;-73
2023/03/11 05:43:49;;;;;;;1.05;1.00;;;;;;;3.13;94.11;97070.97;5052505;28;20033;-72
2023/03/11 05:46:15;;;;;;;1.40;1.20;;;;;;;3.31;95.35;97089.66;5052508;28;20061;-72
2023/03/11 05:48:40;;;;;;;1.20;1.10;;;;;;;3.33;94.89;97107.56;5052075;28;20135;-72
2023/03/11 05:51:07;;;;;;;1.20;1.10;;;;;;;3.38;94.86;97114.13;5052233;28;20028;-72
2023/03/11 05:53:33;;;;;;;1.63;1.30;;;;;;;3.47;95.24;97139.31;5052233;28;20060;-72
2023/03/11 05:55:59;;;;;;;1.23;1.13;;;;;;;3.33;95.13;97116.13;5052351;28;20052;-72
2023/03/11 05:58:25;;;;;;;1.75;1.27;;;;;;;3.48;94.88;97150.44;5050605;28;20459;-72
2023/03/11 06:00:51;;;;;;;1.65;1.20;;;;;;;3.36;94.20;97118.50;5051995;28;20388;-72
2023/03/11 06:03:16;;;;;;;1.40;1.25;;;;;;;3.55;94.60;97159.47;5052387;28;20033;-72
2023/03/11 06:05:46;;;;;;;1.50;1.17;;;;;;;3.50;94.49;97159.72;5051752;28;20071;-72
2023/03/11 06:08:12;;;;;;;1.40;1.30;;;;;;;3.24;94.86;97139.78;5052495;28;20033;-72
2023/03/11 06:10:37;;;;;;;1.52;1.40;;;;;;;3.40;95.18;97162.91;5051756;28;20392;-72
2023/03/11 06:13:02;;;;;;;1.65;1.50;;;;;;;3.28;95.04;97158.47;5051970;28;20112;-72
2023/03/11 06:15:28;;;;;;;1.60;1.50;;;;;;;3.25;95.31;97147.44;5051872;28;20215;-72
2023/03/11 06:17:53;;;;;;;1.45;1.23;;;;;;;3.40;95.25;97184.31;5051688;28;20059;-72
2023/03/11 06:20:18;;;;;;;3.50;1.90;;;;;;;3.17;95.46;97156.50;5050535;28;20021;-72
2023/03/11 06:22:47;;;;;;;2.15;1.80;;;;;;;3.35;96.50;97195.78;5051620;28;20039;-72
2023/03/11 06:25:12;;;;;;;3.20;2.33;;;;;;;3.27;95.70;97193.66;5051790;28;20104;-72
2023/03/11 06:27:38;;;;;;;3.95;3.05;;;;;;;3.11;95.47;97177.41;5051688;28;20112;-72
2023/03/11 06:30:03;;;;;;;5.43;3.92;;;;;;;2.98;96.23;97179.84;5051918;28;20033;-72
2023/03/11 06:32:29;;;;;;;5.50;3.47;;;;;;;2.98;97.55;97201.25;5052130;28;20060;-72
2023/03/11 06:34:54;;;;;;;6.43;3.83;;;;;;;2.95;97.24;97211.72;5051484;28;20048;-72
2023/03/11 06:37:20;;;;;;;5.38;3.88;;;;;;;2.94;97.04;97209.22;5051890;28;20117;-72
2023/03/11 06:39:45;;;;;;;3.95;2.60;;;;;;;3.13;97.22;97250.19;5051625;28;20052;-72
2023/03/11 06:42:11;;;;;;;5.18;2.65;;;;;;;3.11;97.46;97252.00;5051611;28;20457;-72
2023/03/11 06:44:37;;;;;;;6.65;3.30;;;;;;;2.92;97.69;97240.16;5051580;28;20388;-72
2023/03/11 06:47:02;;;;;;;4.82;2.70;;;;;;;2.94;97.85;97238.31;5051685;28;20025;-72
2023/03/11 06:49:27;;;;;;;4.10;2.70;;;;;;;2.98;97.70;97267.25;5051579;28;20052;-72
2023/03/11 06:51:53;;;;;;;3.50;2.75;;;;;;;2.92;99.07;97273.56;5051596;28;20039;-72
2023/03/11 06:54:18;;;;;;;5.22;2.95;;;;;;;2.85;98.85;97295.38;5051888;28;20025;-75
2023/03/11 06:56:43;;;;;;;6.35;4.40;;;;;;;2.88;99.02;97304.69;5051356;28;20021;-75
2023/03/11 06:59:09;;;;;;;8.27;4.05;;;;;;;2.90;99.11;97308.81;5051645;28;20033;-75
2023/03/11 07:01:35;;;;;;;5.28;3.75;;;;;;;2.89;98.67;97314.03;5051404;28;20029;-75
2023/03/11 07:04:00;;;;;;;6.60;4.22;;;;;;;2.81;98.97;97321.31;5051408;28;20029;-72
2023/03/11 07:06:27;;;;;;;6.72;4.60;;;;;;;2.70;100.00;97309.88;5051644;28;20032;-72
2023/03/11 07:08:53;;;;;;;8.85;4.80;;;;;;;2.62;100.00;97300.91;5051552;28;20379;-72
2023/03/11 07:11:24;;;;;;;6.13;4.35;;;;;;;2.84;99.56;97349.47;5054346;28;20108;-72
2023/03/11 07:13:51;;;;;;;5.47;4.07;;;;;;;2.74;100.00;97357.66;5054989;28;20041;-72
2023/03/11 07:16:20;;;;;;;6.82;4.40;;;;;;;2.61;100.00;97366.91;5055119;28;20021;-72
2023/03/11 07:18:46;;;;;;;5.35;3.75;;;;;;;2.58;100.00;97384.22;5054807;28;20036;-72
2023/03/11 07:21:17;;;;;;;7.03;4.22;;;;;;;2.39;100.00;97346.59;5055251;28;20059;-72
2023/03/11 07:23:43;;;;;;;4.85;4.25;;;;;;;2.54;100.00;97406.66;5054930;28;20120;-72
2023/03/11 07:26:10;;;;;;;4.35;3.40;;;;;;;2.43;100.00;97391.75;5055124;28;20472;-72
2023/03/11 07:28:36;;;;;;;7.20;5.50;;;;;;;2.56;100.00;97419.41;5055074;28;20025;-72
2023/03/11 07:31:10;;;;;;;10.55;7.13;;;;;;;2.40;100.00;97394.50;5054948;28;20040;-72
2023/03/11 07:33:35;;;;;;;11.85;9.23;;;;;;;2.40;100.00;97394.50;5055045;28;20032;-72
2023/03/11 07:36:07;;;;;;;11.70;7.22;;;;;;;2.36;100.00;97441.81;5054631;28;20032;-72
2023/03/11 07:38:33;;;;;;;15.93;9.63;;;;;;;2.20;100.00;97430.59;5054806;28;20025;-72
2023/03/11 07:40:58;;;;;;;13.43;9.20;;;;;;;2.23;100.00;97433.00;5054883;28;20031;-72
2023/03/11 07:43:24;;;;;;;7.82;6.00;;;;;;;2.31;100.00;97425.75;5054742;28;20020;-72
2023/03/11 07:45:50;;;;;;;5.97;5.18;;;;;;;2.46;100.00;97461.00;5054992;28;20052;-72
2023/03/11 07:48:16;;;;;;;7.13;5.95;;;;;;;2.39;100.00;97481.91;5054823;28;20031;-72
2023/03/11 07:50:41;;;;;;;6.05;5.00;;;;;;;2.14;100.00;97436.84;5054428;28;20025;-72
2023/03/11 07:53:07;;;;;;;9.27;6.95;;;;;;;2.38;100.00;97482.81;5043723;28;20025;-73
2023/03/11 07:55:32;;;;;;;6.53;5.22;;;;;;;2.25;100.00;97492.84;5043064;28;20111;-73
2023/03/11 07:57:58;;;;;;;7.45;5.70;;;;;;;1.98;100.00;97472.72;5039647;28;20037;-73
2023/03/11 08:00:23;;;;;;;7.95;6.40;;;;;;;2.16;100.00;97499.25;5034469;28;20021;-73
2023/03/11 08:02:48;;;;;;;8.55;6.53;;;;;;;2.20;100.00;97515.34;5034362;28;20083;-73
2023/03/11 08:05:14;;;;;;;11.00;8.63;;;;;;;2.08;100.00;97508.22;5034523;28;20029;-73
2023/03/11 08:07:39;;;;;;;6.68;6.03;;;;;;;2.20;100.00;97521.31;5034449;28;20652;-73
2023/03/11 08:10:05;;;;;;;9.02;7.05;;;;;;;2.47;100.00;97551.75;5034274;28;20422;-73
2023/03/11 08:12:31;;;;;;;11.75;8.73;;;;;;;2.48;100.00;97564.50;5034271;28;20029;-73
2023/03/11 08:14:56;;;;;;;9.98;7.57;;;;;;;2.14;100.00;97526.72;5034131;28;20021;-73
2023/03/11 08:17:21;;;;;;;12.88;8.75;;;;;;;2.46;100.00;97581.75;5034031;28;20121;-73
2023/03/11 08:19:48;;;;;;;11.32;8.23;;;;;;;2.31;100.00;97579.06;5033790;28;20373;-73
2023/03/11 08:22:13;;;;;;;15.25;10.80;;;;;;;2.28;100.00;97590.31;5033766;28;20084;-73
2023/03/11 08:24:38;;;;;;;14.90;10.77;;;;;;;2.37;100.00;97607.88;5034035;28;20029;-73
2023/03/11 08:27:04;;;;;;;11.52;9.20;;;;;;;2.35;100.00;97622.50;5034078;28;20378;-73
2023/03/11 08:29:29;;;;;;;10.05;7.97;;;;;;;2.18;100.00;97638.69;5033920;28;20033;-73
2023/03/11 08:31:55;;;;;;;10.55;8.20;;;;;;;1.99;100.00;97619.88;5033819;28;20030;-73
2023/03/11 08:34:21;;;;;;;8.35;7.15;;;;;;;1.96;100.00;97637.97;5034182;28;20374;-73
2023/03/11 08:36:46;;;;;;;10.50;8.13;;;;;;;2.15;100.00;97654.25;5033512;28;20441;-73
2023/03/11 08:39:12;;;;;;;13.20;9.00;;;;;;;2.09;100.00;97669.09;5033827;28;20053;-73
2023/03/11 08:41:37;;;;;;;9.52;7.70;;;;;;;1.96;100.00;97659.34;5033737;28;20057;-73
2023/03/11 08:44:03;;;;;;;9.35;7.30;;;;;;;2.07;100.00;97671.72;5033310;28;20484;-73
2023/03/11 08:46:30;;;;;;;7.35;6.45;;;;;;;2.21;100.00;97682.22;5033773;28;20037;-73
2023/03/11 08:48:56;;;;;;;10.93;7.57;;;;;;;2.12;100.00;97663.81;5033509;28;20086;-73
2023/03/11 08:51:22;;;;;;;8.10;5.80;;;;;;;2.32;100.00;97699.72;5033594;28;20044;-73
2023/03/11 08:53:49;;;;;;;7.50;5.95;;;;;;;2.13;100.00;97684.28;5033290;28;20030;-73
2023/03/11 08:56:15;;;;;;;8.95;6.75;;;;;;;2.12;100.00;97716.00;5033386;28;20060;-73
2023/03/11 08:58:40;;;;;;;8.90;6.28;;;;;;;2.22;100.00;97722.41;5033369;28;20033;-73
2023/03/11 09:01:08;;;;;;;9.15;6.40;;;;;;;2.30;100.00;97740.06;5033432;28;20073;-73
2023/03/11 09:03:34;;;;;;;7.32;6.32;;;;;;;2.06;100.00;97721.41;5033470;28;20025;-73
2023/03/11 09:06:02;;;;;;;5.38;4.80;;;;;;;2.27;100.00;97767.59;5031040;28;20044;-73
2023/03/11 09:08:29;;;;;;;5.53;4.88;;;;;;;2.19;100.00;97744.81;5033161;28;20037;-73
2023/03/11 09:10:55;;;;;;;4.35;3.78;;;;;;;2.39;100.00;97783.31;5032850;28;20168;-73
2023/03/11 09:13:21;;;;;;;7.32;5.55;;;;;;;2.36;99.95;97787.75;5033143;28;20525;-73
2023/03/11 09:15:48;;;;;;;9.02;5.72;;;;;;;2.21;99.97;97792.66;5033070;28;20053;-73
2023/03/11 09:18:15;;;;;;;8.35;5.97;;;;;;;2.18;99.72;97773.97;5033059;28;20029;-73
2023/03/11 09:20:41;;;;;;;31.65;19.45;;;;;;;2.29;99.16;97782.06;5010300;28;20046;-73
2023/03/11 09:23:07;;;;;;;14.02;8.85;;;;;;;2.32;98.13;97786.22;5010438;28;20060;-74
2023/03/11 09:25:34;;;;;;;6.85;5.05;;;;;;;2.56;97.45;97817.72;5010388;28;20061;-74
2023/03/11 09:27:59;;;;;;;31.25;22.10;;;;;;;2.55;96.77;97834.06;5010354;28;20032;-74
2023/03/11 09:30:25;;;;;;;32.10;17.75;;;;;;;2.37;96.91;97810.81;5010652;28;20042;-74
2023/03/11 09:32:50;;;;;;;7.13;6.20;;;;;;;2.49;96.39;97838.56;5009650;28;20065;-74
2023/03/11 09:35:15;;;;;;;6.00;5.10;;;;;;;2.40;96.31;97831.25;5010492;28;20045;-74
2023/03/11 09:37:41;;;;;;;7.68;5.20;;;;;;;2.53;95.66;97870.13;5010492;28;20064;-74
2023/03/11 09:40:07;;;;;;;5.25;4.75;;;;;;;2.74;95.52;97869.19;5010163;28;20466;-74
2023/03/11 09:42:39;;;;;;;8.48;6.78;;;;;;;2.72;95.52;97875.28;5010716;28;20117;-74
2023/03/11 09:45:34;;;;;;;6.07;4.65;;;;;;;2.83;94.43;97880.81;5020895;28;20149;-74
2023/03/11 09:48:22;;;;;;;3.97;3.58;;;;;;;2.97;93.73;97887.91;4990484;28;20717;-74
2023/03/11 09:50:52;;;;;;;5.88;4.20;;;;;;;2.80;93.32;97877.53;4992457;28;20045;-74
2023/03/11 09:53:23;;;;;;;4.97;3.95;;;;;;;2.98;93.85;97917.84;5010200;28;20050;-74
2023/03/11 09:55:52;;;;;;;5.10;4.10;;;;;;;3.01;93.26;97904.88;5010124;28;20109;-74
2023/03/11 09:58:39;;;;;;;6.72;5.47;;;;;;;2.97;93.57;97922.16;5010169;28;20521;-74
2023/03/11 10:01:29;;;;;;;5.32;4.75;;;;;;;2.89;94.26;97929.38;5008782;28;20117;-74
2023/03/11 10:04:16;;;;;;;5.28;4.75;;;;;;;2.81;94.18;97920.31;4990287;28;20096;-74
2023/03/11 10:06:44;;;;;;;7.30;5.15;;;;;;;2.74;94.19;97918.03;4990095;28;20506;-74
2023/03/11 10:09:31;;;;;;;9.38;6.05;;;;;;;2.93;94.11;97955.81;4990165;28;20030;-74
2023/03/11 10:12:16;;;;;;;11.40;7.90;;;;;;;2.90;94.62;97961.91;4990333;28;20046;-74
2023/03/11 10:15:03;;;;;;;11.60;7.25;;;;;;;2.67;95.45;97950.03;4990457;28;20474;-74
2023/03/11 10:17:47;;;;;;;9.52;6.97;;;;;;;2.83;95.46;97967.38;4990300;28;20034;-74
2023/03/11 10:21:03;;;;;;;15.40;8.55;;;;;;;2.86;94.64;97986.06;4990265;28;20529;-74
2023/03/11 10:23:50;;;;;;;11.77;7.15;;;;;;;2.56;95.05;97969.34;4951585;29;20047;-74
2023/03/11 10:26:33;;;;;;;13.50;8.75;;;;;;;2.66;95.18;98002.34;4990041;28;20054;-74
2023/03/11 10:28:58;;;;;;;18.23;9.70;;;;;;;2.73;95.06;98005.47;4990159;28;20082;-74
2023/03/11 10:31:30;;;;;;;19.95;10.82;;;;;;;2.78;94.10;97985.56;4995899;28;20029;-74
2023/03/11 10:34:10;;;;;;;14.23;8.10;;;;;;;2.68;93.21;98004.84;5009541;28;20037;-74
2023/03/11 10:36:50;;;;;;;10.60;6.53;;;;;;;2.64;92.38;97977.59;5009689;28;20037;-74
2023/03/11 10:39:15;;;;;;;10.23;6.45;;;;;;;2.67;92.85;97986.00;5009667;28;20042;-74
2023/03/11 10:41:49;;;;;;;7.82;5.63;;;;;;;2.61;92.13;97995.69;5009650;28;20108;-74
2023/03/11 10:44:38;;;;;;;8.73;5.80;;;;;;;2.79;91.98;98006.97;4994315;28;20445;-74
2023/03/11 10:47:05;;;;;;;7.28;5.47;;;;;;;3.11;91.37;98039.06;5013425;28;20070;-74
2023/03/11 10:49:31;;;;;;;6.60;4.55;;;;;;;3.34;90.44;98032.94;5013643;28;20034;-74
2023/03/11 10:51:57;;;;;;;7.32;5.78;;;;;;;3.41;89.09;98049.75;5013286;28;20042;-74
2023/03/11 10:54:30;;;;;;;7.50;5.82;;;;;;;3.23;88.32;98049.66;5013634;28;20022;-74
2023/03/11 10:56:58;;;;;;;9.15;6.28;;;;;;;3.26;88.93;98059.00;5013225;28;20034;-74
2023/03/11 10:59:30;;;;;;;11.20;7.28;;;;;;;3.22;89.38;98071.16;5045374;28;20037;-74
2023/03/11 11:01:59;;;;;;;15.10;9.13;;;;;;;3.33;89.21;98064.69;5055417;28;20029;-74
2023/03/11 11:04:35;;;;;;;10.57;7.25;;;;;;;3.14;89.67;98064.66;5055608;28;20052;-74
2023/03/11 11:07:27;;;;;;;11.32;7.32;;;;;;;3.04;89.49;98066.78;5055110;28;20068;-74
2023/03/11 11:10:11;;;;;;;12.57;7.90;;;;;;;3.20;89.71;98075.53;5055069;28;20029;-74
2023/03/11 11:13:02;;;;;;;10.30;6.85;;;;;;;3.40;88.93;98074.66;5055524;28;20146;-74
2023/03/11 11:15:41;;;;;;;10.13;7.22;;;;;;;3.42;87.48;98080.59;5055199;28;20476;-74
2023/03/11 11:18:15;;;;;;;13.98;7.13;;;;;;;3.40;87.18;98076.41;5054886;28;20040;-74
2023/03/11 11:20:54;;;;;;;14.73;9.18;;;;;;;3.21;89.58;98079.78;5055053;28;20025;-74
2023/03/11 11:23:25;;;;;;;13.85;8.63;;;;;;;2.95;91.59;98098.00;5055496;28;20388;-74
2023/03/11 11:26:00;;;;;;;15.43;10.35;;;;;;;2.89;92.57;98116.25;5054828;28;20477;-74
2023/03/11 11:28:27;;;;;;;15.50;10.40;;;;;;;3.03;92.88;98101.09;5055090;28;20480;-74
2023/03/11 11:30:58;;;;;;;12.23;8.85;;;;;;;3.34;91.64;98118.69;5055071;28;20094;-74
2023/03/11 11:33:27;;;;;;;12.67;7.30;;;;;;;3.24;90.66;98125.97;5053898;28;20040;-74
2023/03/11 11:35:58;;;;;;;17.50;9.93;;;;;;;3.37;90.27;98105.69;5054628;28;20025;-74
2023/03/11 11:38:26;;;;;;;14.23;8.90;;;;;;;3.46;89.72;98107.88;5054279;28;20079;-74
2023/03/11 11:40:54;;;;;;;13.98;9.00;;;;;;;3.55;88.95;98110.97;5054062;28;20025;-74